Oak Lake, Canada
Current Conditions -  °F | °C
As of 12:00 PM on Friday 31 Oct 2014 (Local Time) from CYBR Reporting Station
Broken Clouds Broken Clouds  
Wind Chill: 19°   Ceiling: 25000
Heat Index: 30°   Visibility: 15mi
Dew Point: 18°   Wind: 15mph
Humidity: 60%   Direction: 180°S
Pressure: 30.43"   Gusts: NA
Location:  49.77°N, 100.63°W
Report Text: CYBR 311700Z 18013KT 15SM BKN250 M01/M08 A3043 RMK CI6 SLP334
Loading
Personal Weather Stations






























Interactive Weather Map
Tropical Storm Tracking
New forecast layout! Learn more

10-Day Weather Forecast

Advertisements
Track Severe Weather on mobile